createdAt,value
2018-12-14T00:01:25.996Z,3.60
2018-12-14T00:03:55.268Z,3.60
2018-12-14T00:06:24.810Z,3.60
2018-12-14T00:08:54.315Z,3.50
2018-12-14T00:11:23.571Z,3.50
2018-12-14T00:13:52.716Z,3.50
2018-12-14T00:16:26.921Z,3.50
2018-12-14T00:18:56.020Z,3.50
2018-12-14T00:21:28.782Z,3.50
2018-12-14T00:23:58.214Z,3.50
2018-12-14T00:26:34.719Z,3.50
2018-12-14T00:29:03.818Z,3.50
2018-12-14T00:31:35.975Z,3.50
2018-12-14T00:34:05.122Z,3.50
2018-12-14T00:36:37.918Z,3.50
2018-12-14T00:39:08.057Z,3.50
2018-12-14T00:41:40.388Z,3.40
2018-12-14T00:44:09.754Z,3.40
2018-12-14T00:46:45.507Z,3.40
2018-12-14T00:49:18.993Z,3.40
2018-12-14T00:51:48.860Z,3.40
2018-12-14T00:54:18.182Z,3.40
2018-12-14T00:56:48.953Z,3.40
2018-12-14T00:59:18.112Z,3.40
2018-12-14T01:01:51.938Z,3.40
2018-12-14T01:04:21.529Z,3.40
2018-12-14T01:06:54.312Z,3.40
2018-12-14T01:09:23.450Z,3.40
2018-12-14T01:11:58.353Z,3.50
2018-12-14T01:14:27.587Z,3.40
2018-12-14T01:17:00.795Z,3.50
2018-12-14T01:19:30.000Z,3.40
2018-12-14T01:22:06.046Z,3.50
2018-12-14T01:24:35.778Z,3.50
2018-12-14T01:27:08.387Z,3.40
2018-12-14T01:29:37.478Z,3.40
2018-12-14T01:32:13.693Z,3.40
2018-12-14T01:34:42.977Z,3.40
2018-12-14T01:37:15.199Z,3.40
2018-12-14T01:39:44.775Z,3.40
2018-12-14T01:42:22.817Z,3.40
2018-12-14T01:44:51.971Z,3.40
2018-12-14T01:47:21.197Z,3.50
2018-12-14T01:49:50.966Z,3.40
2018-12-14T01:52:29.532Z,3.40
2018-12-14T01:54:58.901Z,3.50
2018-12-14T01:57:28.560Z,3.40
2018-12-14T01:59:57.532Z,3.40
2018-12-14T02:02:27.161Z,3.40
2018-12-14T02:04:56.163Z,3.50
2018-12-14T02:07:32.247Z,3.40
2018-12-14T02:10:01.634Z,3.40
2018-12-14T02:12:32.081Z,3.40
2018-12-14T02:15:01.274Z,3.40
2018-12-14T02:17:34.987Z,3.40
2018-12-14T02:20:04.039Z,3.40
2018-12-14T02:22:38.340Z,3.40
2018-12-14T02:25:07.856Z,3.50
2018-12-14T02:27:44.274Z,3.50
2018-12-14T02:30:24.530Z,3.40
2018-12-14T02:32:53.729Z,3.50
2018-12-14T02:35:22.998Z,3.40
2018-12-14T02:37:52.087Z,3.40
2018-12-14T02:40:21.381Z,3.30
2018-12-14T02:42:50.794Z,3.30
2018-12-14T02:45:19.886Z,3.30
2018-12-14T02:47:52.776Z,3.30
2018-12-14T02:50:22.338Z,3.30
2018-12-14T02:52:54.995Z,3.40
2018-12-14T02:55:24.515Z,3.30
2018-12-14T02:57:57.703Z,3.40
2018-12-14T03:00:27.002Z,3.40
2018-12-14T03:03:00.433Z,3.40
2018-12-14T03:05:29.765Z,3.40
2018-12-14T03:08:02.889Z,3.40
2018-12-14T03:10:32.339Z,3.40
2018-12-14T03:13:08.452Z,3.30
2018-12-14T03:15:37.435Z,3.20
2018-12-14T03:20:51.089Z,3.20
2018-12-14T03:23:20.116Z,3.30
2018-12-14T03:25:49.695Z,3.30
2018-12-14T03:28:19.086Z,3.30
2018-12-14T03:30:48.445Z,3.30
2018-12-14T03:33:19.060Z,3.30
2018-12-14T03:35:48.796Z,3.40
2018-12-14T03:38:21.684Z,3.40
2018-12-14T03:40:50.931Z,3.40
2018-12-14T03:43:23.610Z,3.40
2018-12-14T03:45:52.907Z,3.40
2018-12-14T03:48:27.254Z,3.40
2018-12-14T03:50:56.866Z,3.30
2018-12-14T03:53:29.355Z,3.30
2018-12-14T03:55:58.378Z,3.40
2018-12-14T03:58:31.109Z,3.40
2018-12-14T04:01:00.302Z,3.40
2018-12-14T04:03:34.007Z,3.40
2018-12-14T04:06:04.746Z,3.40
2018-12-14T04:08:37.895Z,3.40
2018-12-14T04:11:06.935Z,3.40
2018-12-14T04:13:40.776Z,3.40
2018-12-14T04:16:09.756Z,3.40
2018-12-14T04:18:43.863Z,3.40
2018-12-14T04:21:13.601Z,3.40
2018-12-14T04:23:50.377Z,3.40
2018-12-14T04:26:19.734Z,3.40
2018-12-14T04:28:52.313Z,3.40
2018-12-14T04:31:21.515Z,3.40
2018-12-14T04:33:54.274Z,3.40
2018-12-14T04:36:23.919Z,3.40
2018-12-14T04:38:56.833Z,3.50
2018-12-14T04:41:25.988Z,3.50
2018-12-14T04:44:02.951Z,3.50
2018-12-14T04:46:32.136Z,3.50
2018-12-14T04:49:01.566Z,3.50
2018-12-14T04:51:30.892Z,3.50
2018-12-14T04:54:06.937Z,3.50
2018-12-14T04:56:36.210Z,3.50
2018-12-14T04:59:09.221Z,3.50
2018-12-14T05:01:38.488Z,3.50
2018-12-14T05:04:14.601Z,3.50
2018-12-14T05:06:43.822Z,3.50
2018-12-14T05:09:14.660Z,3.50
2018-12-14T05:11:44.078Z,3.50
2018-12-14T05:14:17.836Z,3.50
2018-12-14T05:16:47.450Z,3.50
2018-12-14T05:19:20.130Z,3.50
2018-12-14T05:21:49.413Z,3.40
2018-12-14T05:24:22.110Z,3.40
2018-12-14T05:26:51.165Z,3.40
2018-12-14T05:29:27.356Z,3.40
2018-12-14T05:31:56.663Z,3.40
2018-12-14T05:34:26.950Z,3.30
2018-12-14T05:36:56.109Z,3.40
2018-12-14T05:39:30.150Z,3.30
2018-12-14T05:41:59.152Z,3.30
2018-12-14T05:44:31.484Z,3.20
2018-12-14T05:47:00.743Z,3.30
2018-12-14T05:49:34.893Z,3.40
2018-12-14T05:52:04.053Z,3.40
2018-12-14T05:54:38.818Z,3.40
2018-12-14T05:57:07.889Z,3.30
2018-12-14T05:59:40.712Z,3.30
2018-12-14T06:02:10.179Z,3.40
2018-12-14T06:04:43.072Z,3.30
2018-12-14T06:07:12.140Z,3.40
2018-12-14T06:09:44.643Z,3.40
2018-12-14T06:12:13.909Z,3.40
2018-12-14T06:14:49.512Z,3.40
2018-12-14T06:17:19.083Z,3.40
2018-12-14T06:19:51.958Z,3.40
2018-12-14T06:22:21.270Z,3.40
2018-12-14T06:24:53.880Z,3.30
2018-12-14T06:27:23.366Z,3.40
2018-12-14T06:29:59.584Z,3.30
2018-12-14T06:32:28.641Z,3.30
2018-12-14T06:35:00.753Z,3.40
2018-12-14T06:37:29.963Z,3.40
2018-12-14T06:40:03.171Z,3.30
2018-12-14T06:42:32.150Z,3.30
2018-12-14T06:45:10.127Z,3.40
2018-12-14T06:47:39.643Z,3.30
2018-12-14T06:50:09.437Z,3.20
2018-12-14T06:52:38.449Z,3.20
2018-12-14T06:55:15.426Z,3.20
2018-12-14T06:57:45.560Z,3.20
2018-12-14T07:00:16.103Z,3.20
2018-12-14T07:02:45.645Z,3.20
2018-12-14T07:05:18.312Z,3.20
2018-12-14T07:07:47.822Z,3.10
2018-12-14T07:10:21.862Z,3.20
2018-12-14T07:12:52.208Z,3.20
2018-12-14T07:15:23.204Z,3.20
2018-12-14T07:17:52.254Z,3.30
2018-12-14T07:20:28.514Z,3.20
2018-12-14T07:22:57.477Z,3.30
2018-12-14T07:25:31.719Z,3.40
2018-12-14T07:28:01.246Z,3.40
2018-12-14T07:30:30.439Z,3.40
2018-12-14T07:33:00.787Z,3.40
2018-12-14T07:35:41.973Z,3.30
2018-12-14T07:38:10.042Z,3.30
2018-12-14T07:40:40.492Z,3.40
2018-12-14T07:43:09.966Z,3.40
2018-12-14T07:45:39.763Z,3.40
2018-12-14T07:48:08.753Z,3.40
2018-12-14T07:50:41.239Z,3.40
2018-12-14T07:53:10.671Z,3.40
2018-12-14T07:55:47.481Z,3.40
2018-12-14T07:58:16.507Z,3.40
2018-12-14T08:00:48.663Z,3.40
2018-12-14T08:03:17.738Z,3.40
2018-12-14T08:05:53.853Z,3.40
2018-12-14T08:08:23.402Z,3.40
2018-12-14T08:10:53.146Z,3.50
2018-12-14T08:13:22.589Z,3.50
2018-12-14T08:15:59.818Z,3.50
2018-12-14T08:18:29.007Z,3.50
2018-12-14T08:20:59.882Z,3.50
2018-12-14T08:23:31.460Z,3.40
2018-12-14T08:26:02.730Z,3.40
2018-12-14T08:28:32.187Z,3.40
2018-12-14T08:31:04.702Z,3.40
2018-12-14T08:33:42.627Z,3.50
2018-12-14T08:36:16.038Z,3.50
2018-12-14T08:38:46.749Z,3.50
2018-12-14T08:41:18.574Z,3.50
2018-12-14T08:43:49.778Z,3.60
2018-12-14T08:46:23.777Z,3.60
2018-12-14T08:48:53.954Z,3.70
2018-12-14T08:51:23.836Z,3.60
2018-12-14T08:53:53.431Z,3.60
2018-12-14T08:56:22.825Z,3.60
2018-12-14T08:58:51.942Z,3.60
2018-12-14T09:01:21.713Z,3.60
2018-12-14T09:03:51.561Z,3.60
2018-12-14T09:06:24.518Z,3.60
2018-12-14T09:08:53.712Z,3.70
2018-12-14T09:11:30.363Z,3.80
2018-12-14T09:13:59.582Z,3.80
2018-12-14T09:16:28.762Z,3.70
2018-12-14T09:19:02.189Z,3.70
2018-12-14T09:21:31.303Z,3.70
2018-12-14T09:24:00.385Z,3.70
2018-12-14T09:26:35.234Z,3.70
2018-12-14T09:29:06.084Z,3.80
2018-12-14T09:31:36.965Z,3.80
2018-12-14T09:34:11.397Z,3.80
2018-12-14T09:36:52.853Z,3.80
2018-12-14T09:39:24.786Z,3.90
2018-12-14T09:41:55.147Z,3.80
2018-12-14T09:44:24.730Z,3.90
2018-12-14T09:46:54.351Z,3.80
2018-12-14T09:49:24.125Z,3.80
2018-12-14T09:51:53.491Z,3.80
2018-12-14T09:54:23.809Z,3.80
2018-12-14T09:56:53.027Z,3.90
2018-12-14T09:59:22.154Z,3.80
2018-12-14T10:01:54.441Z,3.80
2018-12-14T10:04:24.055Z,3.80
2018-12-14T10:07:00.643Z,3.90
2018-12-14T10:09:31.233Z,3.80
2018-12-14T10:12:31.736Z,3.80
2018-12-14T10:15:03.039Z,3.80
2018-12-14T10:17:32.127Z,3.90
2018-12-14T10:20:10.631Z,3.80
2018-12-14T10:22:43.029Z,3.80
2018-12-14T10:25:14.383Z,3.90
2018-12-14T10:27:43.443Z,3.80
2018-12-14T10:30:13.769Z,3.80
2018-12-14T10:32:43.275Z,3.90
2018-12-14T10:35:25.766Z,3.90
2018-12-14T10:37:55.649Z,3.90
2018-12-14T10:40:25.852Z,3.90
2018-12-14T10:42:54.936Z,3.90
2018-12-14T10:45:28.196Z,3.90
2018-12-14T10:47:57.282Z,3.90
2018-12-14T10:50:26.450Z,3.90
2018-12-14T10:52:56.944Z,3.90
2018-12-14T10:55:26.198Z,3.90
2018-12-14T10:57:55.599Z,4.00
2018-12-14T11:00:37.457Z,4.10
2018-12-14T11:03:06.694Z,4.10
2018-12-14T11:05:45.264Z,4.20
2018-12-14T11:08:16.904Z,4.20
2018-12-14T11:10:47.432Z,4.30
2018-12-14T11:13:16.460Z,4.30
2018-12-14T11:15:56.894Z,4.40
2018-12-14T11:18:27.269Z,4.30
2018-12-14T11:20:57.794Z,4.30
2018-12-14T11:23:26.971Z,4.40
2018-12-14T11:25:56.463Z,4.40
2018-12-14T11:28:26.230Z,4.40
2018-12-14T11:30:55.234Z,4.50
2018-12-14T11:33:24.386Z,4.50
2018-12-14T11:35:53.433Z,4.60
2018-12-14T11:38:22.397Z,4.50
2018-12-14T11:40:51.711Z,4.50
2018-12-14T11:43:20.775Z,4.60
2018-12-14T11:45:53.433Z,4.60
2018-12-14T11:48:22.771Z,4.50
2018-12-14T11:51:00.563Z,4.60
2018-12-14T11:53:29.837Z,4.60
2018-12-14T11:56:00.760Z,4.60
2018-12-14T11:58:30.157Z,4.70
2018-12-14T12:01:06.786Z,4.80
2018-12-14T12:03:42.799Z,4.80
2018-12-14T12:06:12.103Z,4.80
2018-12-14T12:08:43.522Z,4.90
2018-12-14T12:11:13.077Z,4.90
2018-12-14T12:13:42.658Z,4.90
2018-12-14T12:16:20.456Z,4.90
2018-12-14T12:18:50.296Z,4.90
2018-12-14T12:21:20.382Z,4.90
2018-12-14T12:23:55.200Z,4.90
2018-12-14T12:26:34.646Z,4.80
2018-12-14T12:29:03.982Z,4.70
2018-12-14T12:31:33.380Z,4.80
2018-12-14T12:34:03.439Z,4.90
2018-12-14T12:36:32.801Z,5.00
2018-12-14T12:39:02.269Z,5.10
2018-12-14T12:41:32.027Z,5.20
2018-12-14T12:44:00.995Z,5.30
2018-12-14T12:46:32.302Z,5.30
2018-12-14T12:49:01.747Z,5.40
2018-12-14T12:51:32.098Z,5.40
2018-12-14T12:54:01.386Z,5.40
2018-12-14T12:56:38.188Z,5.40
2018-12-14T12:59:07.248Z,5.70
2018-12-14T13:01:37.056Z,6.10
2018-12-14T13:04:06.525Z,6.50
2018-12-14T13:06:39.807Z,6.60
2018-12-14T13:09:08.924Z,6.50
2018-12-14T13:11:45.669Z,6.20
2018-12-14T13:14:15.025Z,5.90
2018-12-14T13:16:44.672Z,5.70
2018-12-14T13:19:14.694Z,5.50
2018-12-14T13:21:47.580Z,5.30
2018-12-14T13:24:16.783Z,5.20
2018-12-14T13:26:51.676Z,5.10
2018-12-14T13:29:20.666Z,5.00
2018-12-14T13:31:57.051Z,4.90
2018-12-14T13:34:26.430Z,4.70
2018-12-14T13:36:56.399Z,4.70
2018-12-14T13:39:25.428Z,4.60
2018-12-14T13:42:02.082Z,4.60
2018-12-14T13:44:31.937Z,4.50
2018-12-14T13:47:01.895Z,4.40
2018-12-14T13:49:31.289Z,4.40
2018-12-14T13:52:08.447Z,4.40
2018-12-14T13:54:37.641Z,4.40
2018-12-14T13:57:06.830Z,4.40
2018-12-14T13:59:35.862Z,4.30
2018-12-14T14:02:12.889Z,4.30
2018-12-14T14:04:42.263Z,4.30
2018-12-14T14:07:21.394Z,4.30
2018-12-14T14:09:52.632Z,4.30
2018-12-14T14:12:22.684Z,4.30
2018-12-14T14:14:53.051Z,4.20
2018-12-14T14:17:22.947Z,4.20
2018-12-14T14:19:52.114Z,4.20
2018-12-14T14:22:22.071Z,4.20
2018-12-14T14:24:52.464Z,4.20
2018-12-14T14:27:25.323Z,4.20
2018-12-14T14:29:54.489Z,4.20
2018-12-14T14:32:26.269Z,4.20
2018-12-14T14:34:55.412Z,4.20
2018-12-14T14:37:27.833Z,4.20
2018-12-14T14:39:57.482Z,4.10
2018-12-14T14:42:30.640Z,4.10
2018-12-14T14:45:00.027Z,4.10
2018-12-14T14:47:34.153Z,4.00
2018-12-14T14:50:03.514Z,4.00
2018-12-14T14:52:35.924Z,4.00
2018-12-14T14:55:06.653Z,4.00
2018-12-14T14:57:43.623Z,4.00
2018-12-14T15:00:12.782Z,3.90
2018-12-14T15:02:42.161Z,3.90
2018-12-14T15:05:11.640Z,3.90
2018-12-14T15:07:47.755Z,3.90
2018-12-14T15:10:17.024Z,3.90
2018-12-14T15:12:47.951Z,3.90
2018-12-14T15:15:17.035Z,3.80
2018-12-14T15:17:49.958Z,3.80
2018-12-14T15:20:19.443Z,3.90
2018-12-14T15:22:56.310Z,3.90
2018-12-14T15:25:25.619Z,3.80
2018-12-14T15:27:55.542Z,3.80
2018-12-14T15:30:24.797Z,3.80
2018-12-14T15:33:00.784Z,3.90
2018-12-14T15:35:30.431Z,3.90
2018-12-14T15:38:01.648Z,3.90
2018-12-14T15:40:31.043Z,3.90
2018-12-14T15:43:07.629Z,3.90
2018-12-14T15:45:37.139Z,3.90
2018-12-14T15:48:09.020Z,3.80
2018-12-14T15:50:38.661Z,3.90
2018-12-14T15:53:15.118Z,3.90
2018-12-14T15:55:44.951Z,3.90
2018-12-14T15:58:15.503Z,3.80
2018-12-14T16:00:44.872Z,3.90
2018-12-14T16:03:17.839Z,3.80
2018-12-14T16:05:47.227Z,3.80
2018-12-14T16:08:24.339Z,3.80
2018-12-14T16:10:53.682Z,3.80
2018-12-14T16:13:22.732Z,3.90
2018-12-14T16:15:51.913Z,3.90
2018-12-14T16:18:25.351Z,3.90
2018-12-14T16:20:54.455Z,3.90
2018-12-14T16:23:27.254Z,3.90
2018-12-14T16:25:56.698Z,3.80
2018-12-14T16:28:29.687Z,3.90
2018-12-14T16:30:58.950Z,3.90
2018-12-14T16:33:31.582Z,3.80
2018-12-14T16:36:07.717Z,3.80
2018-12-14T16:38:39.932Z,3.80
2018-12-14T16:41:13.195Z,3.90
2018-12-14T16:43:44.724Z,3.90
2018-12-14T16:46:14.961Z,3.80
2018-12-14T16:48:45.203Z,3.80
2018-12-14T16:51:15.745Z,3.80
2018-12-14T16:53:50.590Z,3.80
2018-12-14T16:56:19.818Z,3.80
2018-12-14T16:58:49.198Z,3.80
2018-12-14T17:01:18.936Z,3.70
2018-12-14T17:03:51.829Z,3.70
2018-12-14T17:06:22.453Z,3.80
2018-12-14T17:08:53.890Z,3.70
2018-12-14T17:11:25.902Z,3.70
2018-12-14T17:13:56.214Z,3.70
2018-12-14T17:16:25.809Z,3.70
2018-12-14T17:18:56.237Z,3.70
2018-12-14T17:21:26.215Z,3.70
2018-12-14T17:29:34.561Z,3.60
2018-12-14T17:32:19.804Z,3.60
2018-12-14T17:34:51.513Z,3.60
2018-12-14T17:37:23.379Z,3.70
2018-12-14T17:39:57.347Z,3.70
2018-12-14T17:42:34.032Z,3.70
2018-12-14T17:45:18.558Z,3.70
2018-12-14T17:47:54.991Z,3.70
2018-12-14T17:50:42.122Z,3.70
2018-12-14T17:53:39.071Z,3.70
2018-12-14T17:56:15.299Z,3.70
2018-12-14T17:58:45.700Z,3.60
2018-12-14T18:01:24.520Z,3.70
2018-12-14T18:03:54.161Z,3.70
2018-12-14T18:06:24.825Z,3.70
2018-12-14T18:08:54.347Z,3.60
2018-12-14T18:11:26.157Z,3.70
2018-12-14T18:13:55.771Z,3.70
2018-12-14T18:16:32.950Z,3.80
2018-12-14T18:19:02.877Z,3.80
2018-12-14T18:21:32.326Z,3.70
2018-12-14T18:24:01.772Z,3.70
2018-12-14T18:26:34.355Z,3.80
2018-12-14T18:29:03.458Z,3.80
2018-12-14T18:31:39.664Z,3.80
2018-12-14T18:34:09.437Z,3.80
2018-12-14T18:36:38.778Z,3.80
2018-12-14T18:39:08.330Z,3.70
2018-12-14T18:41:48.611Z,3.70
2018-12-14T18:46:48.951Z,3.70
2018-12-14T18:49:19.098Z,3.70
2018-12-14T18:51:48.811Z,3.70
2018-12-14T18:54:18.845Z,3.70
2018-12-14T18:56:52.279Z,3.70
2018-12-14T18:59:21.611Z,3.60
2018-12-14T19:01:52.602Z,3.70
2018-12-14T19:04:22.725Z,3.70
2018-12-14T19:06:56.148Z,3.80
2018-12-14T19:09:25.548Z,3.70
2018-12-14T19:11:59.022Z,3.80
2018-12-14T19:14:29.011Z,3.80
2018-12-14T19:17:03.506Z,3.80
2018-12-14T19:19:33.145Z,3.80
2018-12-14T19:22:03.286Z,3.80
2018-12-14T19:24:32.394Z,3.80
2018-12-14T19:27:07.267Z,3.90
2018-12-14T19:29:38.253Z,3.70
2018-12-14T19:32:16.105Z,3.50
2018-12-14T19:34:45.695Z,3.50
2018-12-14T19:37:14.904Z,3.50
2018-12-14T19:39:44.582Z,3.50
2018-12-14T19:42:20.023Z,3.50
2018-12-14T19:51:43.337Z,3.30
2018-12-14T19:54:12.441Z,3.40
2018-12-14T19:56:42.234Z,3.40
2018-12-14T19:59:11.635Z,3.40
2018-12-14T20:01:40.808Z,3.40
2018-12-14T20:04:10.121Z,3.40
2018-12-14T20:06:39.468Z,3.40
2018-12-14T20:09:08.674Z,3.40
2018-12-14T20:11:37.725Z,3.50
2018-12-14T20:14:08.977Z,3.60
2018-12-14T20:16:40.068Z,3.50
2018-12-14T20:19:09.244Z,3.60
2018-12-14T20:21:39.208Z,3.60
2018-12-14T20:24:08.563Z,3.70
2018-12-14T20:26:41.827Z,3.60
2018-12-14T20:29:11.246Z,3.70
2018-12-14T20:31:42.069Z,3.70
2018-12-14T20:34:12.368Z,3.70
2018-12-14T20:36:46.782Z,3.70
2018-12-14T20:39:16.779Z,3.70
2018-12-14T20:41:48.690Z,3.70
2018-12-14T20:44:17.973Z,3.70
2018-12-14T20:46:50.759Z,3.70
2018-12-14T20:49:20.860Z,3.70
2018-12-14T20:51:53.465Z,3.60
2018-12-14T20:54:22.934Z,3.60
2018-12-14T20:56:56.377Z,3.50
2018-12-14T20:59:26.878Z,3.60
2018-12-14T21:01:57.855Z,3.60
2018-12-14T21:04:27.162Z,3.60
2018-12-14T21:07:01.396Z,3.60
2018-12-14T21:09:30.900Z,3.60
2018-12-14T21:12:04.964Z,3.60
2018-12-14T21:14:34.035Z,3.50
2018-12-14T21:17:10.479Z,3.40
2018-12-14T21:19:39.808Z,3.50
2018-12-14T21:22:15.250Z,3.40
2018-12-14T21:24:50.999Z,3.40
2018-12-14T21:27:24.435Z,3.40
2018-12-14T21:29:53.777Z,3.50
2018-12-14T21:32:23.711Z,3.50
2018-12-14T21:34:54.802Z,3.50
2018-12-14T21:37:28.220Z,3.50
2018-12-14T21:39:57.847Z,3.50
2018-12-14T21:42:32.019Z,3.40
2018-12-14T21:45:06.115Z,3.40
2018-12-14T21:47:36.258Z,3.50
2018-12-14T21:50:05.901Z,3.50
2018-12-14T21:52:36.276Z,3.60
2018-12-14T21:55:06.915Z,3.50
2018-12-14T21:57:40.064Z,3.50
2018-12-14T22:00:13.384Z,3.50
2018-12-14T22:02:43.797Z,3.50
2018-12-14T22:05:15.710Z,3.50
2018-12-14T22:07:46.400Z,3.50
2018-12-14T22:10:17.702Z,3.50
2018-12-14T22:12:49.921Z,3.50
2018-12-14T22:15:19.987Z,3.50
2018-12-14T22:17:51.422Z,3.50
2018-12-14T22:20:20.998Z,3.60
2018-12-14T22:22:50.901Z,3.50
2018-12-14T22:25:20.515Z,3.50
2018-12-14T22:27:52.109Z,3.50
2018-12-14T22:30:21.727Z,3.50
2018-12-14T22:32:51.325Z,3.30
2018-12-14T22:35:20.900Z,3.20
2018-12-14T22:37:52.333Z,3.30
2018-12-14T22:40:21.634Z,3.30
2018-12-14T22:42:53.847Z,3.40
2018-12-14T22:45:23.500Z,3.40
2018-12-14T22:47:57.906Z,3.40
2018-12-14T22:50:28.672Z,3.40
2018-12-14T22:53:00.996Z,3.40
2018-12-14T22:55:33.649Z,3.50
2018-12-14T22:58:03.494Z,3.50
2018-12-14T23:00:34.937Z,3.50
2018-12-14T23:03:05.188Z,3.40
2018-12-14T23:05:34.330Z,3.50
2018-12-14T23:08:15.758Z,3.50
2018-12-14T23:10:46.439Z,3.50
2018-12-14T23:13:16.443Z,3.50
2018-12-14T23:15:45.888Z,3.50
2018-12-14T23:18:14.947Z,3.40
2018-12-14T23:20:45.760Z,3.40
2018-12-14T23:23:17.225Z,3.40
2018-12-14T23:25:46.246Z,3.40
2018-12-14T23:28:19.941Z,3.50
2018-12-14T23:30:49.947Z,3.40
2018-12-14T23:33:23.050Z,3.40
2018-12-14T23:35:52.214Z,3.30
2018-12-14T23:38:24.119Z,3.20
2018-12-14T23:40:54.559Z,3.00
2018-12-14T23:43:27.085Z,3.10
2018-12-14T23:45:56.069Z,3.10
2018-12-14T23:48:29.828Z,3.00
2018-12-14T23:50:58.944Z,3.00
2018-12-14T23:53:32.671Z,3.00
2018-12-14T23:56:01.924Z,3.10
2018-12-14T23:58:35.047Z,3.20
